createdAt,value
2022-12-19T00:01:09.620Z,13.50
2022-12-19T00:03:17.089Z,13.50
2022-12-19T00:05:24.661Z,13.50
2022-12-19T00:07:33.366Z,13.50
2022-12-19T00:09:40.341Z,13.60
2022-12-19T00:11:47.676Z,13.60
2022-12-19T00:13:54.656Z,13.70
2022-12-19T00:16:07.147Z,13.70
2022-12-19T00:18:14.189Z,13.70
2022-12-19T00:20:21.572Z,13.70
2022-12-19T00:22:28.807Z,13.70
2022-12-19T00:24:36.401Z,13.70
2022-12-19T00:26:43.325Z,13.70
2022-12-19T00:28:52.655Z,13.70
2022-12-19T00:31:02.908Z,13.70
2022-12-19T00:33:11.834Z,13.70
2022-12-19T00:35:18.853Z,13.70
2022-12-19T00:37:26.028Z,13.80
2022-12-19T00:39:33.120Z,13.80
2022-12-19T00:41:42.579Z,13.90
2022-12-19T00:43:50.093Z,13.90
2022-12-19T00:45:57.316Z,14.00
2022-12-19T00:48:04.405Z,14.00
2022-12-19T00:50:14.149Z,14.10
2022-12-19T00:52:21.126Z,14.10
2022-12-19T00:54:29.984Z,14.20
2022-12-19T00:56:40.301Z,14.30
2022-12-19T00:58:47.944Z,14.30
2022-12-19T01:00:54.895Z,14.40
2022-12-19T01:03:02.068Z,14.50
2022-12-19T01:05:14.045Z,14.60
2022-12-19T01:07:21.173Z,14.60
2022-12-19T01:09:27.998Z,14.70
2022-12-19T01:11:51.666Z,14.80
2022-12-19T01:13:58.592Z,14.80
2022-12-19T01:16:07.591Z,14.90
2022-12-19T01:18:14.903Z,15.00
2022-12-19T01:20:29.599Z,15.10
2022-12-19T01:22:37.404Z,15.20
2022-12-19T01:24:45.148Z,15.30
2022-12-19T01:26:54.840Z,15.40
2022-12-19T01:29:02.224Z,15.40
2022-12-19T01:31:10.072Z,15.50
2022-12-19T01:33:21.913Z,15.60
2022-12-19T01:35:31.299Z,15.70
2022-12-19T01:37:38.413Z,15.80
2022-12-19T01:39:46.069Z,15.90
2022-12-19T01:41:53.402Z,16.00
2022-12-19T01:44:02.171Z,16.00
2022-12-19T01:46:16.046Z,16.10
2022-12-19T01:48:33.126Z,16.10
2022-12-19T01:51:01.383Z,16.20
2022-12-19T01:53:13.241Z,16.30
2022-12-19T01:55:20.984Z,16.40
2022-12-19T01:57:32.542Z,16.40
2022-12-19T01:59:45.658Z,16.50
2022-12-19T02:01:58.198Z,16.60
2022-12-19T02:04:06.421Z,16.70
2022-12-19T02:06:16.829Z,16.80
2022-12-19T02:08:24.628Z,16.80
2022-12-19T02:10:31.909Z,16.90
2022-12-19T02:12:42.067Z,16.90
2022-12-19T02:14:51.191Z,17.00
2022-12-19T02:17:05.951Z,17.00
2022-12-19T02:19:47.900Z,17.10
2022-12-19T02:22:04.501Z,17.20
2022-12-19T02:24:58.685Z,17.20
2022-12-19T02:27:28.756Z,17.30
2022-12-19T02:30:07.327Z,17.40
2022-12-19T02:32:24.389Z,17.50
2022-12-19T02:34:40.045Z,17.60
2022-12-19T02:36:55.098Z,17.70
2022-12-19T02:39:08.006Z,17.70
2022-12-19T02:41:22.003Z,17.70
2022-12-19T02:43:34.046Z,17.70
2022-12-19T02:45:44.209Z,17.80
2022-12-19T02:47:52.965Z,18.00
2022-12-19T02:50:01.357Z,18.10
2022-12-19T02:52:16.346Z,18.10
2022-12-19T02:54:24.240Z,18.30
2022-12-19T02:56:42.482Z,18.40
2022-12-19T02:59:05.850Z,18.40
2022-12-19T03:01:23.994Z,18.50
2022-12-19T03:03:46.322Z,18.60
2022-12-19T03:06:03.491Z,18.70
2022-12-19T03:08:17.789Z,18.80
2022-12-19T03:10:32.495Z,18.90
2022-12-19T03:12:45.058Z,19.00
2022-12-19T03:14:53.262Z,19.20
2022-12-19T03:17:05.766Z,19.30
2022-12-19T03:19:17.353Z,19.40
2022-12-19T03:21:28.426Z,19.40
2022-12-19T03:23:35.915Z,19.50
2022-12-19T03:25:46.589Z,19.60
2022-12-19T03:27:55.299Z,19.70
2022-12-19T03:30:08.264Z,19.80
2022-12-19T03:32:17.093Z,19.90
2022-12-19T03:34:31.596Z,20.00
2022-12-19T03:36:42.778Z,20.00
2022-12-19T03:38:51.638Z,20.10
2022-12-19T03:40:59.895Z,20.30
2022-12-19T03:43:12.654Z,20.40
2022-12-19T03:45:26.907Z,20.50
2022-12-19T03:47:40.435Z,20.50
2022-12-19T03:49:49.623Z,20.60
2022-12-19T03:52:03.865Z,20.70
2022-12-19T03:54:16.830Z,20.90
2022-12-19T03:56:34.150Z,21.00
2022-12-19T03:58:45.687Z,21.10
2022-12-19T04:00:54.195Z,21.20
2022-12-19T04:03:02.824Z,21.20
2022-12-19T04:05:15.011Z,21.30
2022-12-19T04:07:23.117Z,21.30
2022-12-19T04:09:30.143Z,21.50
2022-12-19T04:11:42.650Z,21.50
2022-12-19T04:13:52.695Z,21.60
2022-12-19T04:16:10.088Z,21.60
2022-12-19T04:18:19.399Z,21.60
2022-12-19T04:20:31.956Z,21.70
2022-12-19T04:22:42.620Z,21.80
2022-12-19T04:24:52.208Z,21.80
2022-12-19T04:27:02.717Z,21.80
2022-12-19T04:29:11.179Z,21.90
2022-12-19T04:31:19.546Z,22.10
2022-12-19T04:33:26.770Z,22.30
2022-12-19T04:35:35.705Z,22.40
2022-12-19T04:37:44.360Z,22.50
2022-12-19T04:39:51.804Z,22.50
2022-12-19T04:41:58.990Z,22.60
2022-12-19T04:44:06.826Z,22.60
2022-12-19T04:46:14.050Z,22.70
2022-12-19T04:48:21.239Z,22.90
2022-12-19T04:50:28.164Z,23.00
2022-12-19T04:52:37.138Z,23.00
2022-12-19T04:54:44.115Z,23.10
2022-12-19T04:56:51.295Z,23.10
2022-12-19T04:59:00.987Z,23.10
2022-12-19T05:01:09.249Z,23.10
2022-12-19T05:03:16.360Z,23.10
2022-12-19T05:05:23.553Z,23.10
2022-12-19T05:07:30.565Z,23.20
2022-12-19T05:09:39.453Z,23.20
2022-12-19T05:11:46.479Z,23.20
2022-12-19T05:13:54.226Z,23.20
2022-12-19T05:16:03.440Z,23.20
2022-12-19T05:18:21.399Z,23.20
2022-12-19T05:20:29.032Z,23.20
2022-12-19T05:22:39.487Z,23.30
2022-12-19T05:25:00.261Z,23.40
2022-12-19T05:27:08.135Z,23.50
2022-12-19T05:29:16.036Z,23.50
2022-12-19T05:31:24.316Z,23.50
2022-12-19T05:33:31.269Z,23.50
2022-12-19T05:35:39.114Z,23.50
2022-12-19T05:37:46.046Z,23.50
2022-12-19T05:39:54.962Z,23.50
2022-12-19T05:42:01.935Z,23.60
2022-12-19T05:44:09.324Z,23.60
2022-12-19T05:46:16.411Z,23.60
2022-12-19T05:48:23.689Z,23.70
2022-12-19T05:50:30.663Z,23.80
2022-12-19T05:52:48.842Z,23.80
2022-12-19T05:54:57.876Z,23.80
2022-12-19T05:57:06.184Z,23.80
2022-12-19T05:59:13.212Z,23.70
2022-12-19T06:01:22.357Z,23.70
2022-12-19T06:03:29.499Z,23.70
2022-12-19T06:05:40.554Z,23.80
2022-12-19T06:07:47.829Z,23.90
2022-12-19T06:09:54.799Z,23.80
2022-12-19T06:12:03.572Z,23.90
2022-12-19T06:14:10.595Z,23.90
2022-12-19T06:16:19.471Z,24.00
2022-12-19T06:18:26.494Z,24.10
2022-12-19T06:20:33.733Z,24.00
2022-12-19T06:22:40.806Z,24.00
2022-12-19T06:24:48.092Z,24.00
2022-12-19T06:26:55.118Z,24.00
2022-12-19T06:29:04.019Z,24.00
2022-12-19T06:31:12.365Z,24.00
2022-12-19T06:33:19.684Z,24.10
2022-12-19T06:35:27.480Z,24.10
2022-12-19T06:37:36.874Z,24.10
2022-12-19T06:39:46.193Z,24.20
2022-12-19T06:42:10.172Z,24.30
2022-12-19T06:44:20.268Z,24.30
2022-12-19T06:46:27.923Z,24.30
2022-12-19T06:48:34.886Z,24.40
2022-12-19T06:50:42.224Z,24.40
2022-12-19T06:52:49.198Z,24.30
2022-12-19T06:54:58.375Z,24.30
2022-12-19T06:57:05.924Z,24.30
2022-12-19T06:59:16.547Z,24.40
2022-12-19T07:01:38.296Z,24.30
2022-12-19T07:03:47.587Z,24.30
2022-12-19T07:05:56.160Z,24.40
2022-12-19T07:08:05.022Z,24.30
2022-12-19T07:10:13.402Z,24.30
2022-12-19T07:12:20.608Z,24.30
2022-12-19T07:14:32.710Z,24.30
2022-12-19T07:16:43.664Z,24.30
2022-12-19T07:18:55.774Z,24.30
2022-12-19T07:21:06.189Z,24.20
2022-12-19T07:23:24.217Z,24.10
2022-12-19T07:25:31.346Z,24.10
2022-12-19T07:27:39.041Z,24.20
2022-12-19T07:29:52.070Z,24.20
2022-12-19T07:32:04.088Z,24.30
2022-12-19T07:34:12.515Z,24.30
2022-12-19T07:36:20.769Z,24.30
2022-12-19T07:38:28.109Z,24.30
2022-12-19T07:40:37.948Z,24.30
2022-12-19T07:42:48.711Z,24.30
2022-12-19T07:44:58.610Z,24.30
2022-12-19T07:47:13.879Z,24.30
2022-12-19T07:49:22.843Z,24.30
2022-12-19T07:51:30.188Z,24.40
2022-12-19T07:53:41.063Z,24.40
2022-12-19T07:55:49.160Z,24.30
2022-12-19T07:57:56.493Z,24.30
2022-12-19T08:00:06.507Z,24.30
2022-12-19T08:02:22.205Z,24.30
2022-12-19T08:04:30.737Z,24.30
2022-12-19T08:06:41.443Z,24.30
2022-12-19T08:08:50.875Z,24.20
2022-12-19T08:10:58.834Z,24.20
2022-12-19T08:13:06.327Z,24.20
2022-12-19T08:15:15.054Z,24.20
2022-12-19T08:17:26.556Z,24.20
2022-12-19T08:19:34.024Z,24.10
2022-12-19T08:21:42.019Z,24.10
2022-12-19T08:23:49.143Z,24.10
2022-12-19T08:26:06.257Z,24.10
2022-12-19T08:28:16.666Z,24.00
2022-12-19T08:30:24.156Z,24.00
2022-12-19T08:32:38.146Z,24.00
2022-12-19T08:34:46.914Z,24.00
2022-12-19T08:36:54.766Z,24.00
2022-12-19T08:39:03.071Z,24.10
2022-12-19T08:41:13.477Z,24.10
2022-12-19T08:43:22.351Z,24.10
2022-12-19T08:45:30.605Z,24.00
2022-12-19T08:47:45.674Z,24.00
2022-12-19T08:50:03.376Z,24.00
2022-12-19T08:52:13.295Z,24.00
2022-12-19T08:54:21.821Z,24.00
2022-12-19T08:56:28.915Z,24.00
2022-12-19T08:58:36.738Z,23.90
2022-12-19T09:00:52.066Z,24.00
2022-12-19T09:03:10.637Z,23.90
2022-12-19T09:06:00.590Z,23.90
2022-12-19T09:07:47.651Z,23.90
2022-12-19T09:09:54.732Z,23.90
2022-12-19T09:12:02.071Z,23.90
2022-12-19T09:14:09.301Z,23.80
2022-12-19T09:16:19.670Z,23.80
2022-12-19T09:18:32.279Z,23.70
2022-12-19T09:20:49.889Z,23.70
2022-12-19T09:22:57.122Z,23.70
2022-12-19T09:25:07.324Z,23.70
2022-12-19T09:27:18.667Z,23.80
2022-12-19T09:29:33.528Z,23.70
2022-12-19T09:31:42.899Z,23.70
2022-12-19T09:34:01.243Z,23.60
2022-12-19T09:36:12.883Z,23.60
2022-12-19T09:38:21.040Z,23.50
2022-12-19T09:40:36.611Z,23.60
2022-12-19T09:43:05.409Z,23.50
2022-12-19T09:45:31.730Z,23.60
2022-12-19T09:47:45.618Z,23.50
2022-12-19T09:49:56.945Z,23.40
2022-12-19T09:52:08.326Z,23.40
2022-12-19T09:54:20.578Z,23.40
2022-12-19T09:56:33.974Z,23.40
2022-12-19T09:58:56.241Z,23.30
2022-12-19T10:01:06.139Z,23.30
2022-12-19T10:03:24.402Z,23.30
2022-12-19T10:06:34.819Z,23.20
2022-12-19T10:08:21.303Z,23.20
2022-12-19T10:12:36.579Z,23.10
2022-12-19T10:13:20.860Z,23.10
2022-12-19T10:15:33.277Z,23.10
2022-12-19T10:18:01.343Z,23.10
2022-12-19T10:20:21.995Z,23.00
2022-12-19T10:22:41.965Z,22.90
2022-12-19T10:25:11.161Z,22.90
2022-12-19T10:27:27.511Z,22.80
2022-12-19T10:30:02.283Z,22.80
2022-12-19T10:32:18.917Z,22.70
2022-12-19T10:34:31.548Z,22.70
2022-12-19T10:37:23.224Z,22.60
2022-12-19T10:39:24.520Z,22.60
2022-12-19T10:41:35.802Z,22.50
2022-12-19T10:44:00.999Z,22.50
2022-12-19T10:46:18.713Z,22.40
2022-12-19T10:48:30.472Z,22.40
2022-12-19T10:50:39.303Z,22.30
2022-12-19T10:52:56.124Z,22.20
2022-12-19T10:55:04.760Z,22.20
2022-12-19T10:57:27.863Z,22.10
2022-12-19T10:59:34.815Z,22.00
2022-12-19T11:01:43.348Z,22.00
2022-12-19T11:03:54.838Z,21.90
2022-12-19T11:06:02.580Z,21.80
2022-12-19T11:08:23.434Z,21.70
2022-12-19T11:12:43.915Z,21.60
2022-12-19T11:19:16.064Z,21.60
2022-12-19T11:21:07.789Z,21.50
2022-12-19T11:21:10.431Z,21.40
2022-12-19T11:29:34.222Z,21.30
2022-12-19T11:29:46.777Z,21.30
2022-12-19T11:30:25.557Z,21.20
2022-12-19T11:30:43.668Z,21.20
2022-12-19T11:33:34.710Z,21.10
2022-12-19T11:35:51.216Z,21.10
2022-12-19T11:38:01.464Z,21.10
2022-12-19T11:40:14.092Z,21.00
2022-12-19T11:42:28.987Z,21.00
2022-12-19T11:44:42.159Z,20.90
2022-12-19T11:46:56.663Z,20.90
2022-12-19T11:49:08.920Z,20.90
2022-12-19T11:51:26.336Z,20.80
2022-12-19T11:53:37.495Z,20.60
2022-12-19T11:55:48.120Z,20.50
2022-12-19T11:57:57.763Z,20.50
2022-12-19T12:00:05.823Z,20.50
2022-12-19T12:02:48.507Z,20.40
2022-12-19T12:04:59.900Z,20.30
2022-12-19T12:07:30.859Z,20.20
2022-12-19T12:12:52.583Z,20.10
2022-12-19T12:22:07.167Z,20.10
2022-12-19T12:26:52.983Z,20.10
2022-12-19T12:31:08.553Z,20.00
2022-12-19T12:31:17.510Z,19.80
2022-12-19T12:31:21.175Z,19.90
2022-12-19T12:31:31.377Z,19.80
2022-12-19T12:32:04.209Z,19.70
2022-12-19T12:35:33.273Z,19.60
2022-12-19T12:40:24.776Z,19.50
2022-12-19T12:42:42.158Z,19.50
2022-12-19T12:44:51.482Z,19.50
2022-12-19T12:47:08.232Z,19.40
2022-12-19T12:49:32.668Z,19.40
2022-12-19T12:51:40.010Z,19.30
2022-12-19T12:53:49.134Z,19.10
2022-12-19T12:55:57.950Z,19.10
2022-12-19T12:58:09.224Z,19.00
2022-12-19T13:00:23.640Z,19.10
2022-12-19T13:02:36.297Z,19.10
2022-12-19T13:04:57.706Z,19.10
2022-12-19T13:07:32.585Z,19.10
2022-12-19T13:09:41.102Z,19.10
2022-12-19T13:12:09.334Z,19.10
2022-12-19T13:14:54.292Z,19.10
2022-12-19T13:17:01.362Z,19.10
2022-12-19T13:19:25.858Z,19.00
2022-12-19T13:22:17.077Z,18.90
2022-12-19T13:24:25.224Z,18.80
2022-12-19T13:26:53.399Z,18.80
2022-12-19T13:29:46.614Z,18.80
2022-12-19T13:32:15.718Z,18.80
2022-12-19T13:34:24.587Z,18.70
2022-12-19T13:39:49.684Z,18.70
2022-12-19T13:40:01.896Z,18.60
2022-12-19T13:42:42.398Z,18.50
2022-12-19T13:44:51.547Z,18.50
2022-12-19T13:46:59.576Z,18.50
2022-12-19T13:49:09.783Z,18.60
2022-12-19T13:51:19.417Z,18.60
2022-12-19T13:53:28.501Z,18.50
2022-12-19T13:55:35.782Z,18.50
2022-12-19T13:57:51.204Z,18.50
2022-12-19T14:00:05.276Z,18.50
2022-12-19T14:02:23.937Z,18.50
2022-12-19T14:04:33.466Z,18.50
2022-12-19T14:06:46.471Z,18.50
2022-12-19T14:09:46.268Z,18.50
2022-12-19T14:11:43.074Z,18.50
2022-12-19T14:14:16.404Z,18.40
2022-12-19T14:16:43.529Z,18.40
2022-12-19T14:18:52.868Z,18.40
2022-12-19T14:22:04.707Z,18.30
2022-12-19T14:23:46.927Z,18.30
2022-12-19T14:28:14.890Z,18.20
2022-12-19T14:28:30.111Z,18.30
2022-12-19T14:30:40.523Z,18.20
2022-12-19T14:33:46.943Z,18.00
2022-12-19T14:36:06.614Z,18.00
2022-12-19T14:39:25.665Z,18.00
2022-12-19T14:40:25.843Z,18.00
2022-12-19T14:43:56.378Z,18.00
2022-12-19T14:52:25.597Z,18.00
2022-12-19T14:52:34.908Z,18.00
2022-12-19T14:54:27.916Z,18.00
2022-12-19T14:54:37.064Z,18.00
2022-12-19T14:56:13.564Z,18.00
2022-12-19T14:58:53.315Z,18.00
2022-12-19T15:01:09.182Z,18.00
2022-12-19T15:03:22.411Z,18.00
2022-12-19T15:05:30.257Z,18.00
2022-12-19T15:07:38.378Z,18.00
2022-12-19T15:11:03.348Z,18.00
2022-12-19T15:14:46.965Z,17.90
2022-12-19T15:15:23.098Z,17.90
2022-12-19T15:17:30.327Z,17.70
2022-12-19T15:19:37.272Z,17.70
2022-12-19T15:21:44.450Z,17.70
2022-12-19T15:23:51.430Z,17.70
2022-12-19T15:26:04.950Z,17.60
2022-12-19T15:28:18.539Z,17.60
2022-12-19T15:30:26.287Z,17.50
2022-12-19T15:32:33.109Z,17.60
2022-12-19T15:34:50.520Z,17.60
2022-12-19T15:36:59.859Z,17.60
2022-12-19T15:39:07.555Z,17.50
2022-12-19T15:41:18.267Z,17.50
2022-12-19T15:44:02.034Z,17.50
2022-12-19T15:46:00.648Z,17.50
2022-12-19T15:48:08.125Z,17.50
2022-12-19T15:50:23.301Z,17.40
2022-12-19T15:52:30.483Z,17.30
2022-12-19T15:54:52.556Z,17.20
2022-12-19T15:57:00.665Z,17.10
2022-12-19T15:59:15.575Z,17.00
2022-12-19T16:01:22.902Z,17.10
2022-12-19T16:03:30.117Z,17.00
2022-12-19T16:05:37.509Z,17.00
2022-12-19T16:07:44.561Z,17.00
2022-12-19T16:09:52.288Z,17.00
2022-12-19T16:11:59.689Z,17.00
2022-12-19T16:14:08.301Z,17.00
2022-12-19T16:16:16.271Z,17.00
2022-12-19T16:18:24.510Z,17.00
2022-12-19T16:20:32.974Z,16.90
2022-12-19T16:22:42.558Z,16.90
2022-12-19T16:24:49.499Z,16.80
2022-12-19T16:26:58.864Z,16.80
2022-12-19T16:29:08.711Z,16.80
2022-12-19T16:31:19.244Z,16.80
2022-12-19T16:33:27.482Z,16.90
2022-12-19T16:36:02.954Z,16.90
2022-12-19T16:38:01.243Z,16.80
2022-12-19T16:40:09.207Z,16.80
2022-12-19T16:42:18.840Z,16.80
2022-12-19T16:44:28.221Z,16.90
2022-12-19T16:46:36.139Z,16.90
2022-12-19T16:48:43.552Z,16.90
2022-12-19T16:50:50.632Z,16.80
2022-12-19T16:52:58.477Z,16.70
2022-12-19T16:55:05.253Z,16.60
2022-12-19T16:57:22.054Z,16.60
2022-12-19T16:59:33.898Z,16.60
2022-12-19T17:01:41.456Z,16.60
2022-12-19T17:03:48.720Z,16.50
2022-12-19T17:05:55.802Z,16.50
2022-12-19T17:08:03.188Z,16.50
2022-12-19T17:10:10.983Z,16.50
2022-12-19T17:12:21.241Z,16.50
2022-12-19T17:14:34.359Z,16.50
2022-12-19T17:16:41.698Z,16.50
2022-12-19T17:18:49.746Z,16.40
2022-12-19T17:20:56.843Z,16.40
2022-12-19T17:23:04.132Z,16.40
2022-12-19T17:25:21.171Z,16.50
2022-12-19T17:27:28.095Z,16.50
2022-12-19T17:29:36.975Z,16.50
2022-12-19T17:31:44.763Z,16.60
2022-12-19T17:33:52.355Z,16.60
2022-12-19T17:36:00.415Z,16.60
2022-12-19T17:38:08.047Z,16.60
2022-12-19T17:40:21.172Z,16.50
2022-12-19T17:42:35.289Z,16.50
2022-12-19T17:44:46.190Z,16.50
2022-12-19T17:46:53.874Z,16.50
2022-12-19T17:49:00.852Z,16.50
2022-12-19T17:51:08.343Z,16.40
2022-12-19T17:53:17.518Z,16.40
2022-12-19T17:55:26.308Z,16.30
2022-12-19T17:57:33.571Z,16.20
2022-12-19T17:59:40.750Z,16.30
2022-12-19T18:01:49.724Z,16.30
2022-12-19T18:03:59.630Z,16.30
2022-12-19T18:06:11.936Z,16.20
2022-12-19T18:08:28.802Z,16.10
2022-12-19T18:10:36.216Z,16.00
2022-12-19T18:12:43.454Z,16.10
2022-12-19T18:14:50.582Z,16.00
2022-12-19T18:16:59.609Z,16.00
2022-12-19T18:19:07.710Z,16.10
2022-12-19T18:21:18.835Z,16.10
2022-12-19T18:23:27.512Z,16.10
2022-12-19T18:25:36.833Z,16.10
2022-12-19T18:27:43.656Z,16.00
2022-12-19T18:29:50.774Z,15.90
2022-12-19T18:32:00.083Z,16.00
2022-12-19T18:34:08.436Z,16.00
2022-12-19T18:36:21.647Z,16.00
2022-12-19T18:38:28.725Z,16.00
2022-12-19T18:40:35.807Z,16.00
2022-12-19T18:42:43.346Z,16.00
2022-12-19T18:44:50.176Z,16.00
2022-12-19T18:46:58.833Z,16.00
2022-12-19T18:49:07.503Z,16.00
2022-12-19T18:51:18.332Z,16.00
2022-12-19T18:53:32.904Z,16.10
2022-12-19T18:55:42.462Z,16.10
2022-12-19T18:57:50.205Z,16.10
2022-12-19T18:59:57.181Z,16.10
2022-12-19T19:02:07.357Z,16.10
2022-12-19T19:04:18.231Z,16.00
2022-12-19T19:06:28.435Z,15.90
2022-12-19T19:08:37.329Z,15.80
2022-12-19T19:11:04.436Z,15.70
2022-12-19T19:13:12.019Z,15.60
2022-12-19T19:15:20.633Z,15.50
2022-12-19T19:17:32.937Z,15.50
2022-12-19T19:19:40.215Z,15.50
2022-12-19T19:21:47.652Z,15.40
2022-12-19T19:23:57.602Z,15.40
2022-12-19T19:26:04.884Z,15.40
2022-12-19T19:28:12.477Z,15.40
2022-12-19T19:30:19.872Z,15.30
2022-12-19T19:32:28.749Z,15.30
2022-12-19T19:34:38.273Z,15.30
2022-12-19T19:36:47.908Z,15.30
2022-12-19T19:38:57.597Z,15.40
2022-12-19T19:41:04.776Z,15.30
2022-12-19T19:43:11.971Z,15.30
2022-12-19T19:45:19.090Z,15.20
2022-12-19T19:47:33.284Z,15.30
2022-12-19T19:49:40.364Z,15.30
2022-12-19T19:51:47.650Z,15.20
2022-12-19T19:53:54.828Z,15.10
2022-12-19T19:56:02.829Z,15.10
2022-12-19T19:58:09.756Z,15.10
2022-12-19T20:00:18.015Z,15.00
2022-12-19T20:02:25.790Z,15.00
2022-12-19T20:04:34.701Z,15.10
2022-12-19T20:06:41.453Z,15.10
2022-12-19T20:08:48.891Z,15.10
2022-12-19T20:10:58.652Z,15.10
2022-12-19T20:13:06.016Z,15.20
2022-12-19T20:15:13.458Z,15.20
2022-12-19T20:17:20.451Z,15.20
2022-12-19T20:19:27.206Z,15.30
2022-12-19T20:21:36.074Z,15.20
2022-12-19T20:23:43.459Z,15.10
2022-12-19T20:25:50.846Z,15.00
2022-12-19T20:27:57.671Z,15.00
2022-12-19T20:30:04.744Z,15.00
2022-12-19T20:32:11.577Z,15.20
2022-12-19T20:34:20.903Z,15.20
2022-12-19T20:36:28.094Z,15.20
2022-12-19T20:38:37.263Z,15.20
2022-12-19T20:40:44.090Z,15.20
2022-12-19T20:42:51.280Z,15.20
2022-12-19T20:44:58.243Z,15.20
2022-12-19T20:47:05.408Z,15.30
2022-12-19T20:49:12.404Z,15.30
2022-12-19T20:51:21.119Z,15.30
2022-12-19T20:53:28.100Z,15.20
2022-12-19T20:55:37.066Z,15.20
2022-12-19T20:57:44.102Z,15.20
2022-12-19T20:59:51.483Z,15.20
2022-12-19T21:01:58.599Z,15.30
2022-12-19T21:04:05.850Z,15.30
2022-12-19T21:06:14.675Z,15.30
2022-12-19T21:08:21.598Z,15.30
2022-12-19T21:10:28.414Z,15.30
2022-12-19T21:12:39.922Z,15.10
2022-12-19T21:14:50.927Z,15.10
2022-12-19T21:16:57.947Z,15.10
2022-12-19T21:19:05.029Z,15.00
2022-12-19T21:21:15.282Z,15.00
2022-12-19T21:23:22.871Z,15.10
2022-12-19T21:25:30.346Z,15.10
2022-12-19T21:27:38.769Z,15.10
2022-12-19T21:29:46.361Z,15.10
2022-12-19T21:31:53.212Z,15.10
2022-12-19T21:34:01.517Z,15.10
2022-12-19T21:36:12.264Z,15.10
2022-12-19T21:38:19.344Z,15.10
2022-12-19T21:40:26.364Z,15.00
2022-12-19T21:42:33.443Z,15.00
2022-12-19T21:44:42.058Z,15.10
2022-12-19T21:46:49.233Z,15.20
2022-12-19T21:48:57.393Z,15.20
2022-12-19T21:51:04.987Z,15.20
2022-12-19T21:53:12.011Z,15.20
2022-12-19T21:55:19.398Z,15.20
2022-12-19T21:57:26.172Z,15.10
2022-12-19T21:59:33.302Z,15.00
2022-12-19T22:01:42.619Z,14.90
2022-12-19T22:03:50.288Z,14.80
2022-12-19T22:05:58.737Z,14.90
2022-12-19T22:08:05.775Z,14.90
2022-12-19T22:10:13.410Z,15.00
2022-12-19T22:12:20.744Z,15.00
2022-12-19T22:14:27.718Z,14.80
2022-12-19T22:16:35.464Z,14.70
2022-12-19T22:18:44.905Z,14.70
2022-12-19T22:20:52.184Z,14.70
2022-12-19T22:22:59.116Z,14.70
2022-12-19T22:25:06.547Z,14.70
2022-12-19T22:27:13.320Z,14.70
2022-12-19T22:29:21.115Z,14.60
2022-12-19T22:31:29.389Z,14.60
2022-12-19T22:33:36.964Z,14.60
2022-12-19T22:35:45.627Z,14.60
2022-12-19T22:37:52.857Z,14.60
2022-12-19T22:40:01.071Z,14.60
2022-12-19T22:42:08.106Z,14.70
2022-12-19T22:44:20.145Z,14.70
2022-12-19T22:46:29.672Z,14.80
2022-12-19T22:48:36.597Z,14.80
2022-12-19T22:50:50.079Z,14.70
2022-12-19T22:52:56.901Z,14.80
2022-12-19T22:55:04.187Z,14.70
2022-12-19T22:57:11.327Z,14.60
2022-12-19T22:59:18.448Z,14.60
2022-12-19T23:01:26.991Z,14.70
2022-12-19T23:03:34.816Z,14.60
2022-12-19T23:05:45.600Z,14.60
2022-12-19T23:07:57.361Z,14.50
2022-12-19T23:10:04.392Z,14.50
2022-12-19T23:12:11.440Z,14.50
2022-12-19T23:14:20.133Z,14.40
2022-12-19T23:16:27.316Z,14.40
2022-12-19T23:18:34.448Z,14.40
2022-12-19T23:20:41.627Z,14.30
2022-12-19T23:22:48.504Z,14.30
2022-12-19T23:24:57.067Z,14.30
2022-12-19T23:27:03.842Z,14.30
2022-12-19T23:29:12.304Z,14.30
2022-12-19T23:31:19.270Z,14.30
2022-12-19T23:33:26.355Z,14.30
2022-12-19T23:35:35.236Z,14.30
2022-12-19T23:37:42.925Z,14.30
2022-12-19T23:39:49.847Z,14.30
2022-12-19T23:41:58.614Z,14.30
2022-12-19T23:44:06.000Z,14.30
2022-12-19T23:46:16.456Z,14.30
2022-12-19T23:48:26.109Z,14.30
2022-12-19T23:50:32.923Z,14.30
2022-12-19T23:52:40.157Z,14.30
2022-12-19T23:54:47.033Z,14.40
2022-12-19T23:56:54.529Z,14.40
2022-12-19T23:59:03.493Z,14.50
